createdAt,value
2023-05-10T00:02:04.572Z,12.78
2023-05-10T00:04:31.560Z,12.82
2023-05-10T00:06:58.543Z,12.69
2023-05-10T00:09:25.663Z,12.81
2023-05-10T00:11:52.661Z,12.77
2023-05-10T00:14:20.057Z,12.91
2023-05-10T00:16:47.222Z,12.90
2023-05-10T00:19:14.312Z,12.86
2023-05-10T00:21:41.635Z,12.84
2023-05-10T00:24:08.638Z,12.76
2023-05-10T00:26:35.749Z,12.83
2023-05-10T00:29:03.013Z,12.81
2023-05-10T00:31:30.096Z,12.74
2023-05-10T00:33:58.240Z,12.89
2023-05-10T00:36:25.360Z,12.76
2023-05-10T00:38:52.482Z,12.72
2023-05-10T00:41:19.716Z,12.83
2023-05-10T00:43:47.580Z,12.77
2023-05-10T00:46:16.292Z,12.79
2023-05-10T00:48:44.696Z,12.68
2023-05-10T00:51:11.867Z,12.73
2023-05-10T00:53:38.990Z,12.76
2023-05-10T00:56:06.432Z,12.85
2023-05-10T00:58:34.063Z,12.79
2023-05-10T01:01:02.174Z,12.86
2023-05-10T01:03:29.901Z,12.83
2023-05-10T01:05:57.080Z,12.76
2023-05-10T01:08:26.645Z,12.77
2023-05-10T01:10:53.859Z,12.47
2023-05-10T01:13:43.499Z,12.82
2023-05-10T01:16:10.541Z,12.82
2023-05-10T01:18:41.944Z,12.74
2023-05-10T01:21:33.122Z,12.75
2023-05-10T01:24:22.856Z,12.75
2023-05-10T01:27:11.047Z,12.73
2023-05-10T01:30:13.558Z,12.79
2023-05-10T01:32:45.235Z,12.81
2023-05-10T01:35:23.100Z,12.71
2023-05-10T01:38:05.524Z,12.77
2023-05-10T01:41:03.324Z,12.85
2023-05-10T01:43:37.980Z,12.83
2023-05-10T01:46:11.842Z,12.72
2023-05-10T01:48:48.037Z,12.73
2023-05-10T01:51:22.777Z,12.67
2023-05-10T01:53:51.109Z,12.70
2023-05-10T01:56:24.134Z,12.81
2023-05-10T01:58:52.796Z,12.54
2023-05-10T02:01:22.473Z,12.67
2023-05-10T02:03:52.724Z,12.80
2023-05-10T02:06:22.946Z,12.69
2023-05-10T02:08:52.431Z,12.73
2023-05-10T02:11:22.374Z,12.63
2023-05-10T02:13:51.349Z,12.56
2023-05-10T02:16:22.758Z,12.62
2023-05-10T02:18:51.171Z,12.37
2023-05-10T02:21:21.268Z,12.53
2023-05-10T02:23:51.196Z,12.54
2023-05-10T02:26:20.158Z,12.64
2023-05-10T02:28:48.256Z,12.50
2023-05-10T02:31:15.875Z,12.53
2023-05-10T02:33:44.798Z,12.52
2023-05-10T02:36:13.472Z,12.58
2023-05-10T02:38:41.425Z,12.23
2023-05-10T02:41:10.629Z,12.45
2023-05-10T02:43:40.365Z,12.26
2023-05-10T02:46:07.592Z,12.29
2023-05-10T02:48:36.349Z,12.37
2023-05-10T02:51:08.035Z,12.40
2023-05-10T02:53:37.538Z,12.44
2023-05-10T02:56:15.043Z,12.48
2023-05-10T02:58:42.021Z,12.51
2023-05-10T03:01:09.684Z,12.52
2023-05-10T03:03:36.721Z,12.45
2023-05-10T03:06:04.392Z,12.46
2023-05-10T03:08:32.065Z,12.44
2023-05-10T03:11:29.896Z,12.52
2023-05-10T03:14:23.346Z,12.25
2023-05-10T03:17:01.304Z,12.48
2023-05-10T03:19:33.233Z,12.58
2023-05-10T03:22:04.693Z,12.27
2023-05-10T03:24:36.357Z,12.60
2023-05-10T03:27:05.360Z,12.60
2023-05-10T03:29:33.086Z,12.42
2023-05-10T03:32:01.100Z,12.54
2023-05-10T03:34:32.311Z,12.24
2023-05-10T03:36:59.444Z,12.48
2023-05-10T03:39:29.009Z,12.55
2023-05-10T03:41:59.220Z,12.51
2023-05-10T03:44:26.232Z,12.51
2023-05-10T03:46:53.341Z,12.52
2023-05-10T03:49:20.329Z,12.42
2023-05-10T03:51:47.656Z,12.48
2023-05-10T03:54:14.689Z,12.49
2023-05-10T03:56:41.935Z,12.50
2023-05-10T03:59:09.746Z,12.44
2023-05-10T04:01:36.817Z,12.54
2023-05-10T04:04:04.058Z,12.56
2023-05-10T04:06:32.866Z,12.63
2023-05-10T04:09:01.382Z,12.50
2023-05-10T04:11:28.858Z,12.42
2023-05-10T04:13:55.923Z,12.50
2023-05-10T04:16:23.109Z,12.32
2023-05-10T04:18:50.120Z,12.64
2023-05-10T04:21:17.189Z,12.63
2023-05-10T04:23:44.377Z,12.65
2023-05-10T04:26:11.473Z,12.61
2023-05-10T04:28:38.850Z,12.63
2023-05-10T04:31:07.544Z,12.58
2023-05-10T04:33:35.321Z,12.66
2023-05-10T04:36:02.730Z,12.49
2023-05-10T04:38:30.090Z,12.49
2023-05-10T04:41:08.044Z,12.69
2023-05-10T04:43:37.241Z,12.31
2023-05-10T04:46:05.381Z,12.64
2023-05-10T04:48:32.477Z,12.54
2023-05-10T04:50:59.504Z,12.45
2023-05-10T04:53:26.694Z,12.60
2023-05-10T04:55:53.695Z,12.55
2023-05-10T04:58:20.676Z,12.70
2023-05-10T05:00:47.688Z,12.68
2023-05-10T05:03:14.819Z,12.60
2023-05-10T05:05:41.880Z,12.65
2023-05-10T05:08:08.886Z,12.67
2023-05-10T05:10:35.873Z,12.71
2023-05-10T05:13:02.965Z,12.86
2023-05-10T05:15:31.463Z,12.79
2023-05-10T05:17:58.562Z,12.83
2023-05-10T05:20:25.639Z,12.95
2023-05-10T05:22:52.712Z,12.77
2023-05-10T05:25:19.691Z,13.08
2023-05-10T05:27:46.658Z,13.29
2023-05-10T05:30:13.752Z,13.30
2023-05-10T05:32:40.773Z,13.42
2023-05-10T05:35:08.219Z,13.49
2023-05-10T05:37:36.196Z,13.49
2023-05-10T05:40:03.540Z,13.44
2023-05-10T05:42:32.326Z,13.34
2023-05-10T05:44:59.460Z,13.38
2023-05-10T05:47:26.569Z,13.26
2023-05-10T05:49:53.546Z,13.23
2023-05-10T05:52:20.586Z,13.22
2023-05-10T05:54:47.639Z,13.35
2023-05-10T05:57:14.631Z,13.53
2023-05-10T05:59:44.713Z,13.43
2023-05-10T06:02:11.799Z,13.43
2023-05-10T06:04:39.256Z,13.25
2023-05-10T06:07:08.888Z,13.55
2023-05-10T06:09:35.898Z,13.64
2023-05-10T06:12:02.899Z,13.73
2023-05-10T06:14:29.873Z,13.76
2023-05-10T06:16:57.023Z,13.86
2023-05-10T06:19:24.176Z,13.82
2023-05-10T06:21:53.219Z,13.90
2023-05-10T06:24:20.888Z,13.83
2023-05-10T06:26:47.979Z,13.99
2023-05-10T06:29:16.178Z,13.97
2023-05-10T06:31:43.223Z,14.28
2023-05-10T06:34:10.657Z,14.18
2023-05-10T06:36:37.633Z,14.35
2023-05-10T06:39:04.767Z,14.48
2023-05-10T06:41:31.726Z,14.38
2023-05-10T06:43:58.751Z,14.69
2023-05-10T06:46:25.906Z,14.88
2023-05-10T06:48:53.132Z,14.75
2023-05-10T06:51:22.056Z,14.80
2023-05-10T06:53:49.085Z,14.81
2023-05-10T06:56:16.104Z,15.09
2023-05-10T06:58:43.140Z,14.96
2023-05-10T07:01:10.207Z,15.30
2023-05-10T07:03:37.260Z,15.09
2023-05-10T07:06:04.865Z,15.03
2023-05-10T07:08:32.587Z,14.97
2023-05-10T07:11:11.108Z,15.26
2023-05-10T07:13:40.004Z,15.34
2023-05-10T07:16:07.551Z,15.28
2023-05-10T07:18:34.953Z,15.07
2023-05-10T07:21:02.610Z,14.76
2023-05-10T07:23:30.456Z,14.70
2023-05-10T07:25:58.396Z,14.73
2023-05-10T07:28:25.438Z,14.72
2023-05-10T07:30:52.581Z,14.77
2023-05-10T07:33:19.658Z,14.90
2023-05-10T07:35:46.747Z,14.98
2023-05-10T07:38:13.735Z,15.01
2023-05-10T07:40:40.955Z,15.05
2023-05-10T07:43:07.958Z,14.85
2023-05-10T07:45:35.421Z,14.88
2023-05-10T07:48:02.618Z,14.76
2023-05-10T07:50:29.775Z,14.45
2023-05-10T07:52:56.800Z,14.11
2023-05-10T07:55:23.868Z,13.97
2023-05-10T07:57:50.941Z,13.99
2023-05-10T08:00:20.258Z,14.21
2023-05-10T08:02:48.283Z,14.35
2023-05-10T08:05:15.717Z,14.54
2023-05-10T08:07:43.396Z,14.39
2023-05-10T08:10:12.083Z,15.17
2023-05-10T08:12:39.677Z,15.24
2023-05-10T08:15:07.959Z,15.00
2023-05-10T08:17:35.410Z,14.77
2023-05-10T08:20:02.494Z,14.80
2023-05-10T08:22:29.523Z,14.84
2023-05-10T08:24:56.511Z,14.66
2023-05-10T08:27:23.618Z,14.49
2023-05-10T08:29:50.808Z,14.43
2023-05-10T08:32:18.502Z,14.44
2023-05-10T08:34:45.493Z,14.52
2023-05-10T08:37:14.509Z,14.84
2023-05-10T08:39:41.914Z,14.65
2023-05-10T08:42:10.224Z,14.76
2023-05-10T08:44:37.797Z,14.67
2023-05-10T08:47:08.401Z,15.01
2023-05-10T08:49:36.081Z,15.19
2023-05-10T08:52:05.217Z,15.08
2023-05-10T08:54:33.925Z,15.59
2023-05-10T08:57:01.556Z,15.42
2023-05-10T08:59:29.288Z,15.13
2023-05-10T09:01:59.372Z,15.15
2023-05-10T09:04:26.963Z,15.17
2023-05-10T09:06:55.609Z,14.97
2023-05-10T09:09:22.701Z,14.92
2023-05-10T09:11:49.983Z,14.78
2023-05-10T09:14:18.249Z,14.75
2023-05-10T09:16:45.717Z,14.69
2023-05-10T09:19:12.827Z,14.90
2023-05-10T09:21:39.949Z,14.92
2023-05-10T09:24:08.666Z,14.98
2023-05-10T09:26:36.950Z,14.59
2023-05-10T09:29:04.512Z,15.03
2023-05-10T09:31:57.221Z,14.90
2023-05-10T09:34:32.750Z,14.67
2023-05-10T09:37:02.386Z,14.66
2023-05-10T09:39:37.230Z,14.93
2023-05-10T09:42:06.756Z,15.08
2023-05-10T09:44:34.681Z,15.01
2023-05-10T09:47:03.081Z,15.05
2023-05-10T09:49:30.479Z,15.40
2023-05-10T09:52:02.622Z,15.36
2023-05-10T09:54:29.613Z,15.42
2023-05-10T09:56:56.962Z,15.47
2023-05-10T09:59:27.761Z,15.48
2023-05-10T10:02:00.301Z,15.85
2023-05-10T10:04:27.790Z,15.85
2023-05-10T10:07:05.842Z,15.85
2023-05-10T10:09:34.346Z,15.87
2023-05-10T10:12:05.589Z,16.07
2023-05-10T10:14:32.638Z,16.17
2023-05-10T10:19:34.011Z,16.17
2023-05-10T10:22:01.290Z,15.79
2023-05-10T10:24:28.293Z,15.48
2023-05-10T10:27:00.644Z,15.32
2023-05-10T10:29:46.925Z,15.54
2023-05-10T10:32:36.778Z,15.33
2023-05-10T10:35:05.004Z,15.38
2023-05-10T10:37:46.176Z,15.35
2023-05-10T10:40:34.653Z,15.31
2023-05-10T10:43:25.305Z,15.49
2023-05-10T10:46:16.272Z,15.69
2023-05-10T10:48:52.464Z,16.10
2023-05-10T10:51:19.473Z,16.25
2023-05-10T10:53:48.974Z,16.74
2023-05-10T10:56:16.455Z,17.12
2023-05-10T10:58:52.259Z,17.09
2023-05-10T11:01:19.942Z,17.14
2023-05-10T11:04:02.071Z,17.45
2023-05-10T11:06:33.428Z,17.56
2023-05-10T11:09:11.031Z,17.00
2023-05-10T11:11:52.022Z,16.07
2023-05-10T11:14:22.489Z,16.47
2023-05-10T11:16:49.746Z,16.22
2023-05-10T11:19:18.084Z,16.09
2023-05-10T11:22:12.006Z,16.14
2023-05-10T11:24:39.032Z,16.49
2023-05-10T11:27:06.661Z,16.45
2023-05-10T11:29:33.662Z,16.79
2023-05-10T11:32:01.002Z,16.82
2023-05-10T11:34:35.504Z,16.39
2023-05-10T11:37:02.511Z,15.54
2023-05-10T11:39:30.992Z,15.04
2023-05-10T11:41:59.200Z,14.53
2023-05-10T11:44:32.953Z,14.32
2023-05-10T11:47:03.292Z,14.02
2023-05-10T11:49:30.874Z,13.95
2023-05-10T11:52:08.625Z,14.08
2023-05-10T11:54:38.490Z,13.92
2023-05-10T11:57:05.734Z,14.08
2023-05-10T11:59:32.897Z,14.15
2023-05-10T12:02:00.459Z,14.19
2023-05-10T12:04:30.213Z,14.26
2023-05-10T12:06:57.442Z,14.31
2023-05-10T12:11:57.854Z,14.39
2023-05-10T12:14:25.373Z,14.60
2023-05-10T12:16:52.664Z,14.63
2023-05-10T12:19:22.044Z,14.85
2023-05-10T12:21:49.551Z,14.81
2023-05-10T12:24:20.097Z,15.01
2023-05-10T12:26:47.295Z,15.31
2023-05-10T12:29:16.519Z,15.40
2023-05-10T12:31:57.307Z,15.48
2023-05-10T12:34:47.459Z,15.85
2023-05-10T12:37:14.868Z,15.82
2023-05-10T12:39:43.646Z,15.48
2023-05-10T12:42:11.351Z,15.91
2023-05-10T12:44:39.293Z,15.96
2023-05-10T12:47:06.855Z,15.87
2023-05-10T12:49:34.795Z,16.17
2023-05-10T12:52:02.085Z,15.95
2023-05-10T12:54:29.136Z,15.97
2023-05-10T12:56:56.181Z,16.12
2023-05-10T12:59:23.788Z,16.20
2023-05-10T13:01:51.028Z,15.98
2023-05-10T13:04:18.174Z,16.18
2023-05-10T13:06:45.347Z,16.07
2023-05-10T13:09:12.368Z,16.02
2023-05-10T13:11:39.469Z,15.95
2023-05-10T13:14:06.541Z,15.95
2023-05-10T13:16:33.831Z,16.02
2023-05-10T13:19:01.207Z,15.97
2023-05-10T13:21:28.811Z,15.90
2023-05-10T13:23:56.426Z,15.92
2023-05-10T13:26:23.525Z,15.87
2023-05-10T13:28:52.397Z,15.89
2023-05-10T13:31:19.503Z,16.03
2023-05-10T13:33:46.565Z,16.09
2023-05-10T13:36:13.555Z,16.43
2023-05-10T13:38:40.558Z,16.72
2023-05-10T13:41:07.769Z,17.15
2023-05-10T13:43:34.855Z,16.86
2023-05-10T13:46:02.628Z,17.18
2023-05-10T13:48:29.638Z,17.01
2023-05-10T13:50:57.048Z,16.91
2023-05-10T13:53:24.097Z,16.51
2023-05-10T13:55:51.314Z,15.83
2023-05-10T13:58:18.312Z,15.85
2023-05-10T14:00:45.313Z,15.92
2023-05-10T14:03:12.718Z,15.93
2023-05-10T14:05:39.892Z,15.97
2023-05-10T14:08:06.897Z,16.16
2023-05-10T14:10:33.932Z,16.28
2023-05-10T14:13:01.150Z,16.17
2023-05-10T14:15:28.216Z,16.27
2023-05-10T14:17:55.243Z,16.48
2023-05-10T14:20:22.425Z,16.32
2023-05-10T14:22:49.407Z,16.77
2023-05-10T14:25:16.563Z,16.97
2023-05-10T14:27:43.926Z,17.19
2023-05-10T14:30:11.555Z,16.98
2023-05-10T14:32:38.814Z,16.47
2023-05-10T14:35:07.007Z,16.64
2023-05-10T14:37:34.249Z,16.49
2023-05-10T14:40:01.370Z,16.70
2023-05-10T14:42:29.344Z,16.54
2023-05-10T14:44:56.374Z,16.47
2023-05-10T14:47:23.417Z,16.77
2023-05-10T14:49:50.488Z,17.11
2023-05-10T14:52:18.229Z,16.78
2023-05-10T14:54:45.226Z,16.76
2023-05-10T14:57:12.301Z,17.02
2023-05-10T14:59:39.540Z,16.39
2023-05-10T15:02:09.090Z,16.78
2023-05-10T15:04:36.754Z,16.68
2023-05-10T15:07:04.348Z,16.78
2023-05-10T15:09:31.984Z,17.22
2023-05-10T15:11:59.096Z,17.38
2023-05-10T15:14:26.171Z,17.96
2023-05-10T15:16:53.298Z,18.29
2023-05-10T15:19:21.027Z,18.49
2023-05-10T15:21:48.282Z,18.48
2023-05-10T15:24:15.514Z,18.72
2023-05-10T15:26:42.627Z,18.24
2023-05-10T15:29:09.612Z,17.71
2023-05-10T15:31:36.908Z,17.56
2023-05-10T15:34:04.047Z,16.85
2023-05-10T15:36:32.730Z,16.51
2023-05-10T15:38:59.703Z,16.38
2023-05-10T15:41:26.692Z,16.17
2023-05-10T15:43:54.604Z,16.04
2023-05-10T15:46:21.730Z,15.94
2023-05-10T15:48:48.776Z,15.61
2023-05-10T15:51:15.907Z,15.61
2023-05-10T15:53:56.531Z,15.24
2023-05-10T15:56:30.028Z,15.26
2023-05-10T15:58:57.207Z,15.26
2023-05-10T16:01:24.325Z,15.12
2023-05-10T16:03:51.373Z,15.14
2023-05-10T16:06:18.357Z,15.10
2023-05-10T16:08:45.353Z,15.00
2023-05-10T16:11:12.419Z,14.71
2023-05-10T16:13:39.399Z,14.81
2023-05-10T16:16:08.793Z,14.65
2023-05-10T16:18:36.088Z,14.71
2023-05-10T16:21:03.465Z,14.62
2023-05-10T16:23:30.639Z,14.51
2023-05-10T16:25:57.673Z,14.33
2023-05-10T16:28:24.782Z,14.38
2023-05-10T16:30:51.906Z,14.25
2023-05-10T16:33:18.914Z,14.21
2023-05-10T16:35:46.296Z,14.14
2023-05-10T16:38:13.316Z,14.19
2023-05-10T16:40:40.324Z,14.11
2023-05-10T16:43:07.703Z,14.02
2023-05-10T16:45:34.866Z,13.85
2023-05-10T16:48:01.944Z,13.94
2023-05-10T16:50:29.241Z,14.09
2023-05-10T16:52:56.316Z,14.12
2023-05-10T16:55:26.208Z,14.01
2023-05-10T16:57:59.495Z,14.37
2023-05-10T17:00:27.270Z,14.43
2023-05-10T17:02:54.772Z,14.43
2023-05-10T17:05:22.542Z,14.44
2023-05-10T17:07:50.531Z,14.79
2023-05-10T17:10:17.728Z,15.00
2023-05-10T17:12:45.609Z,15.28
2023-05-10T17:15:12.967Z,15.15
2023-05-10T17:17:40.155Z,15.31
2023-05-10T17:20:08.294Z,15.38
2023-05-10T17:22:35.437Z,15.09
2023-05-10T17:25:02.668Z,14.89
2023-05-10T17:27:30.175Z,14.64
2023-05-10T17:29:57.842Z,14.87
2023-05-10T17:32:25.687Z,14.78
2023-05-10T17:34:52.744Z,14.61
2023-05-10T17:37:19.812Z,14.60
2023-05-10T17:39:46.859Z,14.78
2023-05-10T17:42:16.196Z,14.45
2023-05-10T17:44:43.850Z,14.58
2023-05-10T17:47:10.898Z,14.51
2023-05-10T17:49:37.969Z,14.68
2023-05-10T17:52:05.050Z,14.69
2023-05-10T17:54:32.088Z,14.53
2023-05-10T17:57:00.795Z,14.41
2023-05-10T17:59:27.814Z,14.46
2023-05-10T18:01:54.787Z,14.50
2023-05-10T18:04:21.847Z,14.18
2023-05-10T18:06:49.319Z,14.38
2023-05-10T18:09:17.805Z,14.00
2023-05-10T18:11:44.762Z,14.25
2023-05-10T18:14:12.196Z,14.18
2023-05-10T18:16:39.266Z,14.20
2023-05-10T18:19:06.462Z,14.09
2023-05-10T18:21:33.512Z,14.16
2023-05-10T18:24:00.520Z,14.15
2023-05-10T18:26:27.705Z,14.17
2023-05-10T18:28:54.746Z,14.09
2023-05-10T18:31:22.011Z,14.00
2023-05-10T18:33:49.112Z,13.96
2023-05-10T18:36:16.762Z,13.97
2023-05-10T18:38:44.139Z,13.74
2023-05-10T18:41:12.345Z,13.93
2023-05-10T18:43:39.329Z,14.01
2023-05-10T18:46:06.593Z,13.90
2023-05-10T18:48:33.604Z,13.69
2023-05-10T18:51:00.738Z,13.73
2023-05-10T18:53:27.888Z,13.78
2023-05-10T18:55:57.698Z,13.60
2023-05-10T18:58:27.438Z,13.61
2023-05-10T19:00:54.852Z,13.64
2023-05-10T19:03:22.485Z,13.62
2023-05-10T19:05:49.488Z,13.69
2023-05-10T19:08:17.095Z,13.57
2023-05-10T19:10:44.244Z,13.34
2023-05-10T19:13:11.477Z,13.23
2023-05-10T19:15:38.533Z,13.31
2023-05-10T19:18:07.997Z,13.43
2023-05-10T19:20:36.588Z,13.39
2023-05-10T19:25:35.989Z,13.21
2023-05-10T19:28:02.959Z,13.07
2023-05-10T19:30:31.826Z,13.33
2023-05-10T19:32:58.908Z,13.30
2023-05-10T19:35:26.036Z,13.17
2023-05-10T19:37:53.498Z,13.24
2023-05-10T19:40:20.560Z,13.04
2023-05-10T19:42:48.635Z,12.99
2023-05-10T19:45:16.408Z,13.09
2023-05-10T19:47:43.953Z,12.93
2023-05-10T19:50:12.319Z,13.11
2023-05-10T19:52:39.541Z,12.80
2023-05-10T19:55:07.145Z,12.68
2023-05-10T19:57:34.408Z,12.82
2023-05-10T20:00:01.539Z,12.53
2023-05-10T20:02:28.544Z,12.71
2023-05-10T20:04:55.609Z,12.36
2023-05-10T20:07:22.594Z,12.56
2023-05-10T20:09:49.584Z,12.45
2023-05-10T20:12:16.610Z,12.59
2023-05-10T20:14:43.628Z,12.53
2023-05-10T20:17:10.711Z,12.58
2023-05-10T20:19:37.719Z,12.58
2023-05-10T20:22:05.394Z,12.57
2023-05-10T20:24:32.419Z,12.56
2023-05-10T20:27:00.407Z,12.53
2023-05-10T20:29:27.416Z,12.57
2023-05-10T20:31:54.429Z,12.35
2023-05-10T20:34:21.833Z,12.56
2023-05-10T20:36:48.885Z,12.54
2023-05-10T20:39:16.013Z,12.59
2023-05-10T20:41:43.682Z,12.56
2023-05-10T20:44:10.768Z,12.57
2023-05-10T20:46:37.926Z,12.61
2023-05-10T20:49:05.554Z,12.61
2023-05-10T20:51:33.269Z,12.63
2023-05-10T20:54:02.468Z,12.60
2023-05-10T20:56:29.645Z,12.30
2023-05-10T20:58:56.758Z,12.45
2023-05-10T21:01:23.824Z,12.47
2023-05-10T21:03:50.838Z,12.49
2023-05-10T21:06:17.872Z,12.50
2023-05-10T21:08:44.852Z,12.42
2023-05-10T21:11:11.905Z,12.40
2023-05-10T21:13:38.955Z,12.32
2023-05-10T21:16:06.133Z,12.24
2023-05-10T21:18:33.179Z,12.25
2023-05-10T21:21:00.334Z,12.22
2023-05-10T21:23:27.438Z,12.20
2023-05-10T21:25:55.800Z,12.20
2023-05-10T21:28:23.179Z,12.07
2023-05-10T21:30:51.049Z,12.16
2023-05-10T21:33:18.014Z,12.11
2023-05-10T21:35:45.253Z,12.08
2023-05-10T21:38:12.452Z,11.98
2023-05-10T21:40:40.305Z,12.05
2023-05-10T21:43:08.175Z,11.84
2023-05-10T21:45:36.341Z,11.89
2023-05-10T21:48:03.648Z,11.81
2023-05-10T21:50:30.746Z,11.80
2023-05-10T21:52:57.801Z,11.73
2023-05-10T21:55:24.935Z,11.69
2023-05-10T21:57:52.017Z,11.56
2023-05-10T22:00:19.717Z,11.74
2023-05-10T22:02:47.355Z,11.83
2023-05-10T22:05:14.551Z,11.83
2023-05-10T22:07:41.623Z,11.87
2023-05-10T22:10:09.518Z,11.62
2023-05-10T22:12:36.590Z,11.92
2023-05-10T22:15:09.927Z,11.95
2023-05-10T22:17:40.560Z,11.94
2023-05-10T22:20:08.828Z,12.05
2023-05-10T22:22:36.644Z,11.85
2023-05-10T22:25:05.781Z,12.00
2023-05-10T22:27:32.852Z,12.02
2023-05-10T22:29:59.824Z,12.00
2023-05-10T22:32:26.908Z,12.07
2023-05-10T22:34:53.898Z,12.06
2023-05-10T22:37:20.900Z,11.97
2023-05-10T22:39:48.666Z,12.00
2023-05-10T22:42:16.163Z,11.95
2023-05-10T22:44:43.595Z,12.08
2023-05-10T22:47:10.659Z,12.05
2023-05-10T22:49:37.919Z,11.73
2023-05-10T22:52:04.933Z,11.98
2023-05-10T22:54:33.191Z,12.00
2023-05-10T22:57:01.895Z,11.93
2023-05-10T22:59:28.886Z,11.93
2023-05-10T23:01:55.979Z,11.97
2023-05-10T23:04:23.236Z,11.84
2023-05-10T23:06:50.264Z,11.86
2023-05-10T23:09:17.335Z,11.90
2023-05-10T23:11:44.312Z,11.87
2023-05-10T23:14:11.770Z,11.78
2023-05-10T23:16:39.002Z,11.76
2023-05-10T23:19:07.112Z,11.89
2023-05-10T23:21:34.417Z,11.67
2023-05-10T23:24:01.484Z,11.89
2023-05-10T23:26:28.484Z,12.05
2023-05-10T23:28:55.505Z,12.04
2023-05-10T23:31:22.540Z,12.02
2023-05-10T23:33:49.571Z,12.09
2023-05-10T23:36:16.719Z,12.00
2023-05-10T23:38:43.701Z,11.98
2023-05-10T23:41:10.859Z,12.13
2023-05-10T23:43:37.830Z,12.04
2023-05-10T23:46:06.388Z,12.10
2023-05-10T23:48:33.448Z,11.98
2023-05-10T23:51:00.537Z,12.08
2023-05-10T23:53:28.301Z,12.11
2023-05-10T23:55:55.361Z,12.10
2023-05-10T23:58:22.353Z,12.08
